Hagersville, Canada
Current Conditions -  °F | °C
As of 6:00 AM on Friday 28 Nov 2014 (Local Time) from CYHM Reporting Station
Scattered Clouds Scattered Clouds  
Wind Chill:   Ceiling: Unl
Heat Index: 18°   Visibility: 15mi
Dew Point: 12°   Wind: 9mph
Humidity: 79%   Direction: 230°SW
Pressure: 30.23"   Gusts: NA
Location:  42.95°N, 80.05°W
Report Text: CYHM 281100Z 23008KT 15SM SCT045 M08/M11 A3023 RMK SC3 SLP251
Loading
Personal Weather Stations






























Interactive Weather Map New forecast layout! Learn more

10-Day Weather Forecast

Advertisements
Track Severe Weather on mobile